Time;durP1;ratioP1;P1;durP2;ratioP2;P2;SDS_P1;SDS_P2;PMS_P1;PMS_P2;Temp;Humidity;BMP_temperature;BMP_pressure;BME280_temperature;BME280_humidity;BME280_pressure;Samples;Min_cycle;Max_cycle;Signal;HPM_P1;HPM_P2
2022/06/20 00:01:32;;;;;;;;;58.50;46.00;;;;;15.76;100.00;100282.84;5075097;27;45310;-72
2022/06/20 00:03:58;;;;;;;;;61.00;46.00;;;;;15.89;100.00;100301.44;5074004;28;45223;-69
2022/06/20 00:06:24;;;;;;;;;51.00;43.00;;;;;15.96;100.00;100301.91;5074596;28;47214;-73
2022/06/20 00:08:51;;;;;;;;;58.00;46.25;;;;;16.00;100.00;100299.91;5078343;27;45458;-72
2022/06/20 00:11:44;;;;;;;;;55.00;44.00;;;;;15.95;100.00;100286.09;5078521;28;45325;-72
2022/06/20 00:14:13;;;;;;;;;49.75;42.25;;;;;16.10;100.00;100316.03;5076659;27;45256;-73
2022/06/20 00:16:39;;;;;;;;;50.75;42.25;;;;;16.15;100.00;100305.94;5078463;28;45499;-73
2022/06/20 00:19:05;;;;;;;;;52.50;42.75;;;;;16.22;100.00;100299.25;5077999;27;45356;-71
2022/06/20 00:21:30;;;;;;;;;49.25;39.75;;;;;16.23;100.00;100290.34;5078229;28;45328;-73
2022/06/20 00:23:56;;;;;;;;;55.75;45.25;;;;;16.32;100.00;100302.97;5076922;28;45574;-73
2022/06/20 00:26:21;;;;;;;;;52.50;43.25;;;;;16.35;100.00;100310.72;5077691;27;46192;-73
2022/06/20 00:28:48;;;;;;;;;52.50;41.25;;;;;16.33;100.00;100311.81;5078439;27;45507;-72
2022/06/20 00:31:14;;;;;;;;;52.75;43.50;;;;;16.42;100.00;100313.81;5078136;27;45305;-73
2022/06/20 00:33:40;;;;;;;;;55.00;44.25;;;;;16.46;100.00;100315.31;5079538;27;45282;-68
2022/06/20 00:36:05;;;;;;;;;54.00;44.00;;;;;16.49;100.00;100301.81;5078498;27;45340;-70
2022/06/20 00:38:31;;;;;;;;;53.75;41.50;;;;;16.53;100.00;100280.38;5077852;27;45217;-72
2022/06/20 00:41:06;;;;;;;;;47.00;39.25;;;;;16.55;100.00;100270.50;5077902;27;45394;-67
2022/06/20 00:43:38;;;;;;;;;47.75;40.25;;;;;16.45;100.00;100244.59;5080702;27;45422;-71
2022/06/20 00:46:08;;;;;;;;;47.50;41.00;;;;;16.47;100.00;100225.91;5091205;27;45688;-72
2022/06/20 00:48:53;;;;;;;;;48.25;40.00;;;;;16.31;100.00;100212.88;5083842;27;45252;-73
2022/06/20 00:51:32;;;;;;;;;50.75;42.75;;;;;16.39;100.00;100245.03;5078500;27;45458;-71
2022/06/20 00:54:11;;;;;;;;;49.75;42.75;;;;;16.50;100.00;100269.00;5084227;27;45169;-74
2022/06/20 00:56:55;;;;;;;;;49.75;41.75;;;;;16.60;100.00;100281.63;5086328;27;45353;-72
2022/06/20 00:59:30;;;;;;;;;52.50;43.75;;;;;16.68;100.00;100300.53;5092749;27;38516;-66
2022/06/20 01:01:56;;;;;;;;;49.75;41.00;;;;;16.65;100.00;100303.41;5082531;28;45295;-64
2022/06/20 01:04:29;;;;;;;;;54.25;44.50;;;;;16.68;100.00;100321.78;5079244;27;45586;-67
2022/06/20 01:06:57;;;;;;;;;53.75;44.50;;;;;16.60;100.00;100330.28;5078057;28;47345;-66
2022/06/20 01:09:39;;;;;;;;;44.50;37.00;;;;;-146.80;100.00;64830.25;3686712;27;27591543;-66
2022/06/20 01:12:12;;;;;;;;;53.75;43.75;;;;;16.60;100.00;100353.31;5099858;27;45180;-65
2022/06/20 01:14:41;;;;;;;;;53.50;44.00;;;;;16.54;100.00;100345.78;5109254;27;44559;-65
2022/06/20 01:17:20;;;;;;;;;53.50;43.75;;;;;16.57;100.00;100354.41;5111913;27;38253;-69
2022/06/20 01:19:48;;;;;;;;;59.00;46.00;;;;;16.53;100.00;100344.97;5112317;27;42785;-68
2022/06/20 01:22:31;;;;;;;;;59.50;45.50;;;;;16.53;100.00;100342.31;5113197;27;28263;-65
2022/06/20 01:25:21;;;;;;;;;54.50;45.00;;;;;16.55;100.00;100340.38;5107609;27;45330;-65
2022/06/20 01:27:48;;;;;;;;;51.00;42.50;;;;;16.58;100.00;100318.06;5102092;27;46028;-70
2022/06/20 01:30:13;;;;;;;;;38.00;34.50;;;;;16.39;100.00;100295.47;5108890;27;42792;-72
2022/06/20 01:32:42;;;;;;;;;44.75;37.00;;;;;16.32;100.00;100291.53;5109760;27;45333;-72
2022/06/20 01:35:12;;;;;;;;;46.00;39.75;;;;;16.28;100.00;100274.13;5106718;27;45318;-72
2022/06/20 01:37:41;;;;;;;;;49.75;42.00;;;;;16.24;100.00;100269.97;5109639;27;45434;-72
2022/06/20 01:40:13;;;;;;;;;52.50;41.75;;;;;16.27;100.00;100252.03;5106758;27;45254;-72
2022/06/20 01:42:40;;;;;;;;;47.50;39.25;;;;;16.21;100.00;100221.47;5113046;27;28424;-72
2022/06/20 01:45:57;;;;;;;;;50.00;40.25;;;;;16.03;100.00;100209.50;5109968;27;44665;-71
2022/06/20 01:47:51;;;;;;;;;46.25;39.00;;;;;15.83;100.00;100192.25;5097247;27;45341;-72
2022/06/20 01:50:16;;;;;;;;;49.75;42.00;;;;;15.76;100.00;100190.03;5097419;27;45424;-74
2022/06/20 01:52:44;;;;;;;;;51.50;41.25;;;;;15.64;100.00;100164.34;5097382;27;45343;-72
2022/06/20 01:55:14;;;;;;;;;50.00;42.25;;;;;15.58;100.00;100147.03;5097385;27;45666;-70
2022/06/20 01:57:45;;;;;;;;;46.75;40.00;;;;;15.50;100.00;100116.72;5096937;27;45395;-72
2022/06/20 02:00:17;;;;;;;;;52.75;43.50;;;;;15.49;100.00;100089.38;5097196;27;45257;-72
2022/06/20 02:02:48;;;;;;;;;47.25;39.75;;;;;15.44;100.00;100057.91;5097152;27;45168;-69
2022/06/20 02:05:17;;;;;;;;;51.75;42.25;;;;;15.40;100.00;99989.28;5097323;27;45351;-70
2022/06/20 02:07:43;;;;;;;;;45.75;38.25;;;;;15.38;100.00;99909.06;5096842;27;46531;-70
2022/06/20 02:10:16;;;;;;;;;47.25;39.00;;;;;15.36;100.00;99872.06;5096507;27;45487;-68
2022/06/20 02:12:42;;;;;;;;;47.50;40.50;;;;;15.32;100.00;99865.28;5096914;27;45530;-73
2022/06/20 02:15:15;;;;;;;;;45.25;39.25;;;;;15.31;100.00;99867.09;5097104;27;45240;-72
2022/06/20 02:17:43;;;;;;;;;50.25;40.25;;;;;15.33;100.00;99889.03;5096510;27;46633;-71
2022/06/20 02:20:12;;;;;;;;;42.25;36.75;;;;;15.37;100.00;99912.66;5096752;27;45199;-73
2022/06/20 02:22:38;;;;;;;;;45.50;38.50;;;;;15.43;100.00;99967.88;5096848;27;45448;-73
2022/06/20 02:25:10;;;;;;;;;46.00;38.00;;;;;15.57;100.00;100004.03;5097163;27;45851;-74
2022/06/20 02:28:04;;;;;;;;;46.75;38.75;;;;;15.63;100.00;100022.16;5096714;27;46279;-71
2022/06/20 02:30:29;;;;;;;;;41.25;36.00;;;;;15.68;100.00;100050.97;5095948;27;45380;-71
2022/06/20 02:33:16;;;;;;;;;47.00;39.00;;;;;15.81;100.00;100072.19;5096675;27;45191;-68
2022/06/20 02:35:42;;;;;;;;;45.00;37.25;;;;;15.94;100.00;100088.94;5112457;27;45192;-71
2022/06/20 02:38:07;;;;;;;;;38.25;34.50;;;;;16.02;100.00;100105.16;5096206;27;45468;-73
2022/06/20 02:40:34;;;;;;;;;40.50;35.00;;;;;16.06;100.00;100133.19;5112425;27;45512;-73
2022/06/20 02:43:29;;;;;;;;;44.50;35.75;;;;;16.14;100.00;100153.88;5096617;27;45346;-73
2022/06/20 02:45:57;;;;;;;;;42.50;36.00;;;;;16.18;100.00;100154.50;5074914;27;45338;-73
2022/06/20 02:48:25;;;;;;;;;44.25;37.25;;;;;16.20;100.00;100173.81;5096550;27;46407;-72
2022/06/20 02:50:54;;;;;;;;;46.25;37.25;;;;;16.18;100.00;100165.97;5096658;27;45291;-74
2022/06/20 02:53:28;;;;;;;;;43.25;36.25;;;;;16.26;100.00;100181.34;5096351;27;45344;-72
2022/06/20 02:55:55;;;;;;;;;45.50;38.50;;;;;16.25;100.00;100181.47;5079121;27;45570;-75
2022/06/20 02:58:25;;;;;;;;;42.75;36.50;;;;;16.20;100.00;100187.94;5094572;27;47625;-70
2022/06/20 03:01:21;;;;;;;;;40.50;36.00;;;;;16.24;100.00;100199.16;5096072;27;45302;-71
2022/06/20 03:03:51;;;;;;;;;40.50;33.75;;;;;16.18;100.00;100181.03;5096315;27;45371;-72
2022/06/20 03:06:26;;;;;;;;;43.25;36.00;;;;;16.21;100.00;100179.00;5096474;27;45471;-71
2022/06/20 03:08:54;;;;;;;;;38.25;35.00;;;;;16.25;100.00;100189.41;5096204;27;45325;-72
2022/06/20 03:11:21;;;;;;;;;38.50;35.00;;;;;16.24;100.00;100201.00;5094638;27;45377;-73
2022/06/20 03:13:47;;;;;;;;;39.75;35.25;;;;;16.22;100.00;100217.00;5096973;27;45389;-71
2022/06/20 03:16:13;;;;;;;;;45.50;37.00;;;;;16.23;100.00;100231.13;5096487;27;45542;-72
2022/06/20 03:18:44;;;;;;;;;39.50;35.50;;;;;16.22;100.00;100246.19;5095636;27;46617;-73
2022/06/20 03:21:11;;;;;;;;;39.25;34.25;;;;;16.16;100.00;100239.53;5095802;27;45262;-71
2022/06/20 03:23:36;;;;;;;;;38.25;32.75;;;;;16.18;100.00;100250.88;5095855;27;45304;-71
2022/06/20 03:26:06;;;;;;;;;36.75;33.00;;;;;16.16;100.00;100257.22;5096000;27;45627;-72
2022/06/20 03:28:32;;;;;;;;;45.25;34.25;;;;;16.18;100.00;100260.63;5095412;27;45479;-73
2022/06/20 03:30:59;;;;;;;;;32.75;31.50;;;;;16.16;100.00;100252.78;5111506;27;45185;-68
2022/06/20 03:33:26;;;;;;;;;35.25;32.25;;;;;16.18;100.00;100269.44;5096039;27;45229;-73
2022/06/20 03:35:57;;;;;;;;;35.50;32.00;;;;;16.21;100.00;100271.91;5096022;27;45477;-72
2022/06/20 03:38:23;;;;;;;;;36.50;31.25;;;;;16.25;100.00;100288.44;5095511;27;48174;-71
2022/06/20 03:40:49;;;;;;;;;38.50;33.00;;;;;16.27;100.00;100288.34;5097562;27;45370;-73
2022/06/20 03:43:19;;;;;;;;;40.50;33.25;;;;;16.27;100.00;100302.44;5099408;27;45229;-71
2022/06/20 03:45:54;;;;;;;;;35.50;32.00;;;;;16.25;100.00;100295.56;5099628;27;45298;-69
2022/06/20 03:48:24;;;;;;;;;40.25;33.25;;;;;16.24;100.00;100313.28;5099025;27;45536;-71
2022/06/20 03:50:53;;;;;;;;;39.75;33.50;;;;;16.25;100.00;100314.97;5099140;27;45226;-71
2022/06/20 03:53:29;;;;;;;;;41.25;34.25;;;;;16.26;100.00;100302.56;5099141;27;45413;-71
2022/06/20 03:56:26;;;;;;;;;40.25;34.75;;;;;16.26;100.00;100302.56;5099549;27;45321;-72
2022/06/20 03:59:15;;;;;;;;;34.00;29.75;;;;;16.19;100.00;100294.16;5097391;27;46840;-73
2022/06/20 04:01:49;;;;;;;;;31.50;30.00;;;;;16.16;100.00;100297.91;5098898;27;45511;-73
2022/06/20 04:04:14;;;;;;;;;41.25;35.25;;;;;16.06;100.00;100292.34;5097689;27;45707;-72
2022/06/20 04:06:47;;;;;;;;;38.50;33.00;;;;;16.01;100.00;100294.47;5099220;27;45356;-71
2022/06/20 04:12:12;;;;;;;;;42.00;35.50;;;;;15.99;100.00;100322.91;5098430;27;45323;-71
2022/06/20 04:14:55;;;;;;;;;39.25;34.75;;;;;15.96;100.00;100330.25;5099028;27;45396;-72
2022/06/20 04:20:36;;;;;;;;;42.75;36.75;;;;;15.93;100.00;100331.28;5098421;27;45277;-72
2022/06/20 04:23:09;;;;;;;;;44.00;38.00;;;;;15.98;100.00;100338.94;5098927;27;45333;-74
2022/06/20 04:25:47;;;;;;;;;44.25;34.00;;;;;15.99;100.00;100335.34;5114313;27;45234;-72
2022/06/20 04:28:28;;;;;;;;;45.50;37.25;;;;;16.03;100.00;100350.09;5098778;27;45504;-72
2022/06/20 04:31:19;;;;;;;;;55.00;45.25;;;;;16.01;100.00;100352.00;5098148;27;46341;-72
2022/06/20 04:33:55;;;;;;;;;45.75;39.25;;;;;15.99;100.00;100345.94;5098333;27;45347;-72
2022/06/20 04:36:31;;;;;;;;;45.50;38.00;;;;;15.90;100.00;100352.69;5098487;27;45317;-69
2022/06/20 04:39:13;;;;;;;;;44.00;35.25;;;;;15.87;100.00;100352.88;5098550;27;45378;-70
2022/06/20 04:41:50;;;;;;;;;41.50;35.75;;;;;15.87;100.00;100352.88;5097863;27;47288;-70
2022/06/20 04:44:41;;;;;;;;;44.00;36.25;;;;;15.70;100.00;100320.38;5098162;27;45356;-72
2022/06/20 04:47:21;;;;;;;;;40.50;36.00;;;;;15.88;100.00;100354.59;5073999;27;45496;-71
2022/06/20 04:49:47;;;;;;;;;44.75;36.50;;;;;15.86;100.00;100369.75;5098332;27;45392;-73
2022/06/20 04:52:15;;;;;;;;;35.25;30.75;;;;;15.87;100.00;100382.06;5096990;27;45599;-69
2022/06/20 04:54:41;;;;;;;;;39.00;34.50;;;;;15.90;100.00;100377.44;5097926;27;45339;-69
2022/06/20 04:57:09;;;;;;;;;45.00;35.75;;;;;15.93;100.00;100384.31;5098142;27;45363;-71
2022/06/20 04:59:37;;;;;;;;;40.75;35.50;;;;;15.93;100.00;100383.50;5098282;27;45490;-73
2022/06/20 05:02:09;;;;;;;;;46.00;35.75;;;;;15.97;100.00;100393.78;5098083;27;46746;-72
2022/06/20 05:04:40;;;;;;;;;37.25;34.25;;;;;16.01;100.00;100400.59;5097924;27;45373;-70
2022/06/20 05:07:14;;;;;;;;;43.50;35.50;;;;;16.01;100.00;100402.41;5097958;27;45191;-73
2022/06/20 05:10:08;;;;;;;;;39.25;35.50;;;;;15.96;100.00;100407.16;5098332;27;45500;-72
2022/06/20 05:12:43;;;;;;;;;44.50;35.00;;;;;15.96;100.00;100409.81;5113268;27;48267;-72
2022/06/20 05:15:23;;;;;;;;;38.25;32.50;;;;;15.95;100.00;100408.94;5098021;27;45242;-72
2022/06/20 05:17:50;;;;;;;;;39.75;34.50;;;;;15.97;100.00;100416.81;5097850;27;45325;-72
2022/06/20 05:20:25;;;;;;;;;34.25;30.50;;;;;15.94;100.00;100401.09;5113793;27;45369;-72
2022/06/20 05:23:01;;;;;;;;;36.50;33.25;;;;;15.98;100.00;100410.56;5097721;27;45487;-72
2022/06/20 05:25:31;;;;;;;;;36.00;33.25;;;;;16.03;100.00;100411.13;5097808;27;45454;-71
2022/06/20 05:28:01;;;;;;;;;36.75;33.50;;;;;16.09;100.00;100413.34;5098019;27;45258;-73
2022/06/20 05:30:32;;;;;;;;;39.00;34.00;;;;;16.12;100.00;100399.03;5098048;27;45640;-73
2022/06/20 05:33:01;;;;;;;;;38.50;33.00;;;;;16.15;100.00;100393.50;5096777;27;46502;-71
2022/06/20 05:35:35;;;;;;;;;34.75;30.50;;;;;16.24;100.00;100400.03;5098245;27;45410;-69
2022/06/20 05:38:26;;;;;;;;;39.00;31.25;;;;;16.32;100.00;100413.63;5101945;27;45318;-71
2022/06/20 05:40:55;;;;;;;;;37.25;33.25;;;;;16.44;100.00;100415.44;5096305;27;45234;-70
2022/06/20 05:43:21;;;;;;;;;36.50;31.75;;;;;16.49;100.00;100417.81;5096984;27;45674;-73
2022/06/20 05:45:52;;;;;;;;;32.25;30.25;;;;;16.44;100.00;100422.56;5097390;27;45516;-73
2022/06/20 05:48:22;;;;;;;;;33.75;32.00;;;;;16.54;100.00;100438.72;5097564;27;45287;-72
2022/06/20 05:50:55;;;;;;;;;32.25;30.00;;;;;16.58;100.00;100448.19;5097723;27;45296;-73
2022/06/20 05:53:27;;;;;;;;;29.25;28.75;;;;;16.62;100.00;100452.31;5096910;27;45321;-73
2022/06/20 05:55:57;;;;;;;;;25.25;25.25;;;;;16.64;100.00;100450.41;5112840;27;45465;-73
2022/06/20 05:58:31;;;;;;;;;27.25;24.00;;;;;16.60;100.00;100459.53;5097090;27;45262;-73
2022/06/20 06:01:04;;;;;;;;;39.00;33.25;;;;;16.47;100.00;100448.91;5097683;27;45332;-72
2022/06/20 06:03:44;;;;;;;;;28.50;26.75;;;;;16.60;100.00;100464.84;5096229;27;46627;-73
2022/06/20 06:06:20;;;;;;;;;29.00;27.25;;;;;16.60;100.00;100467.50;5097065;27;45401;-71
2022/06/20 06:08:52;;;;;;;;;22.75;22.75;;;;;16.60;100.00;100463.06;5083760;27;45518;-71
2022/06/20 06:11:28;;;;;;;;;26.50;22.00;;;;;16.60;100.00;100463.06;5090331;27;45266;-68
2022/06/20 06:14:01;;;;;;;;;23.00;23.00;;;;;16.66;100.00;100477.72;5096546;27;45379;-70
2022/06/20 06:16:52;;;;;;;;;23.00;22.25;;;;;16.81;100.00;100470.53;5076657;27;45464;-68
2022/06/20 06:19:48;;;;;;;;;20.50;20.50;;;;;16.90;100.00;100484.97;5061907;28;45470;-70
2022/06/20 06:22:27;;;;;;;;;30.00;25.25;;;;;17.04;100.00;100482.28;5069521;28;45543;-71
2022/06/20 06:24:58;;;;;;;;;26.25;23.00;;;;;17.16;100.00;100487.69;5075751;28;45629;-73
2022/06/20 06:27:27;;;;;;;;;18.75;17.00;;;;;17.14;100.00;100494.91;5076405;27;45352;-72
2022/06/20 06:30:01;;;;;;;;;20.50;20.00;;;;;17.06;100.00;100496.31;5074309;28;45223;-73
2022/06/20 06:32:45;;;;;;;;;26.00;21.00;;;;;16.87;100.00;100486.03;5075065;28;45418;-73
2022/06/20 06:35:27;;;;;;;;;19.25;15.50;;;;;16.95;100.00;100506.75;5075940;27;45311;-68
2022/06/20 06:38:00;;;;;;;;;22.75;22.75;;;;;16.97;100.00;100507.56;5072417;27;45489;-74
2022/06/20 06:40:35;;;;;;;;;21.00;20.75;;;;;17.09;100.00;100508.50;5055047;28;45287;-68
2022/06/20 06:43:13;;;;;;;;;23.75;19.75;;;;;17.03;100.00;100512.47;5054692;28;45335;-68
2022/06/20 06:45:38;;;;;;;;;20.75;19.75;;;;;16.97;100.00;100509.31;5052746;28;46318;-69
2022/06/20 06:48:31;;;;;;;;;23.25;21.75;;;;;16.98;100.00;100511.91;5054634;28;45416;-69
2022/06/20 06:51:04;;;;;;;;;22.50;21.25;;;;;16.97;100.00;100527.91;5052483;28;45460;-68
2022/06/20 06:53:43;;;;;;;;;23.00;23.00;;;;;16.92;100.00;100530.88;5055312;28;45414;-69
2022/06/20 06:56:15;;;;;;;;;19.50;19.00;;;;;16.89;100.00;100533.75;5053362;28;47229;-71
2022/06/20 06:59:05;;;;;;;;;18.75;16.00;;;;;16.84;99.88;100542.03;5054757;28;45303;-69
2022/06/20 07:01:40;;;;;;;;;19.75;19.75;;;;;16.86;100.00;100542.78;5087284;27;45559;-69
2022/06/20 07:04:11;;;;;;;;;31.50;29.75;;;;;16.91;100.00;100537.13;5055370;28;45353;-69
2022/06/20 07:06:56;;;;;;;;;24.25;19.50;;;;;16.96;100.00;100531.53;5055098;28;45758;-68
2022/06/20 07:09:31;;;;;;;;;20.75;17.50;;;;;17.06;100.00;100551.25;5055193;28;45306;-68
2022/06/20 07:12:25;;;;;;;;;21.75;20.25;;;;;17.03;100.00;100547.00;5054948;28;45401;-69
2022/06/20 07:15:04;;;;;;;;;20.00;19.75;;;;;17.12;100.00;100561.44;5055588;28;45603;-68
2022/06/20 07:17:46;;;;;;;;;24.00;23.50;;;;;17.12;100.00;100565.94;5059561;28;47537;-69
2022/06/20 07:20:13;;;;;;;;;19.00;19.00;;;;;17.15;100.00;100563.91;5061503;28;45238;-68
2022/06/20 07:22:41;;;;;;;;;19.50;18.75;;;;;17.14;100.00;100570.16;5060472;28;45372;-71
2022/06/20 07:25:17;;;;;;;;;25.00;20.25;;;;;17.16;100.00;100575.41;5062520;28;45359;-69
2022/06/20 07:27:49;;;;;;;;;27.00;24.50;;;;;17.18;100.00;100571.66;5061440;28;46177;-70
2022/06/20 07:30:18;;;;;;;;;24.75;21.25;;;;;17.20;100.00;100566.25;5061611;28;45400;-68
2022/06/20 07:32:49;;;;;;;;;21.50;19.50;;;;;17.28;100.00;100558.59;5061207;28;45251;-69
2022/06/20 07:35:23;;;;;;;;;20.00;20.00;;;;;17.28;99.56;100574.56;5061861;28;45334;-68
2022/06/20 07:38:03;;;;;;;;;22.25;20.50;;;;;17.30;100.00;100572.63;5061108;28;45437;-67
2022/06/20 07:40:46;;;;;;;;;22.00;21.00;;;;;17.26;100.00;100575.59;5061267;28;45221;-68
2022/06/20 07:43:22;;;;;;;;;21.25;19.25;;;;;17.19;97.16;100581.34;5061433;28;45367;-70
2022/06/20 07:45:50;;;;;;;;;25.75;23.00;;;;;17.17;100.00;100590.38;5061652;28;45451;-68
2022/06/20 07:48:26;;;;;;;;;21.00;20.00;;;;;17.11;98.99;100588.97;5061190;28;47027;-70
2022/06/20 07:51:02;;;;;;;;;24.50;21.00;;;;;17.02;99.65;100595.78;5061161;28;45253;-68
2022/06/20 07:53:33;;;;;;;;;23.25;19.75;;;;;17.01;100.00;100609.16;5061250;28;45490;-69
2022/06/20 07:56:05;;;;;;;;;22.25;21.75;;;;;17.01;100.00;100603.84;5061259;28;45326;-69
2022/06/20 07:58:36;;;;;;;;;22.50;21.75;;;;;16.94;100.00;100593.59;5060679;28;45365;-70
2022/06/20 08:01:11;;;;;;;;;25.75;22.75;;;;;16.98;99.63;100609.38;5060964;28;45391;-68
2022/06/20 08:03:56;;;;;;;;;25.75;21.75;;;;;16.76;96.43;100594.81;5061630;28;45460;-69
2022/06/20 08:06:33;;;;;;;;;24.00;23.50;;;;;16.75;97.64;100603.75;5061582;28;45754;-68
2022/06/20 08:09:06;;;;;;;;;26.50;22.00;;;;;16.75;100.00;100609.06;5059056;28;48244;-67
2022/06/20 08:11:59;;;;;;;;;22.50;21.50;;;;;16.82;100.00;100612.16;5060932;28;45297;-69
2022/06/20 08:14:38;;;;;;;;;25.25;24.75;;;;;16.80;96.94;100610.44;5060800;28;45236;-69
2022/06/20 08:17:10;;;;;;;;;25.50;24.00;;;;;16.70;98.85;100614.66;5076475;28;45523;-69
2022/06/20 08:19:39;;;;;;;;;25.50;25.50;;;;;16.73;99.98;100606.50;5060829;28;45531;-68
2022/06/20 08:22:24;;;;;;;;;26.50;26.00;;;;;16.80;100.00;100609.59;5060887;28;45459;-68
2022/06/20 08:24:57;;;;;;;;;24.00;20.75;;;;;16.93;100.00;100610.50;5076430;28;45530;-68
2022/06/20 08:27:43;;;;;;;;;25.25;22.25;;;;;17.00;100.00;100603.00;5058503;28;45552;-69
2022/06/20 08:30:17;;;;;;;;;24.25;22.25;;;;;17.10;99.52;100608.53;5057602;28;46198;-68
2022/06/20 08:32:48;;;;;;;;;25.00;25.00;;;;;17.12;95.55;100603.97;5057708;28;45382;-68
2022/06/20 08:35:23;;;;;;;;;27.00;24.00;;;;;17.16;95.64;100596.66;5057208;28;45849;-67
2022/06/20 08:38:20;;;;;;;;;31.50;26.50;;;;;17.20;96.07;100600.81;5057333;28;45316;-68
2022/06/20 08:40:54;;;;;;;;;24.75;23.00;;;;;17.34;94.62;100599.84;5056997;28;45397;-68
2022/06/20 08:43:45;;;;;;;;;28.50;26.50;;;;;17.43;96.31;100593.06;5057273;28;45173;-68
2022/06/20 08:46:13;;;;;;;;;29.50;28.25;;;;;17.54;97.29;100592.31;5057363;28;45398;-68
2022/06/20 08:49:07;;;;;;;;;34.50;30.25;;;;;17.66;96.95;100592.31;5057913;28;45441;-68
2022/06/20 08:52:07;;;;;;;;;27.00;24.50;;;;;17.92;95.74;100604.75;5056958;28;46395;-68
2022/06/20 08:54:51;;;;;;;;;26.00;21.50;;;;;18.13;98.38;100614.84;5056831;28;45370;-69
2022/06/20 08:57:22;;;;;;;;;28.00;23.50;;;;;18.23;96.90;100627.41;5072536;28;45333;-67
2022/06/20 08:59:53;;;;;;;;;26.00;21.25;;;;;18.27;95.11;100629.84;5056850;28;45576;-69
2022/06/20 09:02:41;;;;;;;;;32.75;28.25;;;;;18.28;97.78;100636.88;5056372;28;45383;-69
2022/06/20 09:05:20;;;;;;;;;21.75;21.75;;;;;18.31;97.19;100636.63;5056626;28;45380;-69
2022/06/20 09:08:31;;;;;;;;;29.00;24.50;;;;;18.45;94.50;100641.81;5056901;28;45250;-67
2022/06/20 09:11:00;;;;;;;;;24.75;24.25;;;;;18.29;92.38;100646.56;5048617;28;45593;-69
2022/06/20 09:13:38;;;;;;;;;22.50;21.00;;;;;18.23;95.79;100655.81;5056942;28;45537;-69
2022/06/20 09:16:31;;;;;;;;;24.25;23.25;;;;;18.37;97.33;100653.00;5072017;28;45434;-68
2022/06/20 09:19:21;;;;;;;;;19.75;19.75;;;;;18.53;96.76;100651.88;5056751;28;45334;-69
2022/06/20 09:22:06;;;;;;;;;21.25;18.00;;;;;18.51;94.77;100656.47;5072385;28;45334;-69
2022/06/20 09:24:40;;;;;;;;;22.75;21.75;;;;;18.52;92.97;100658.19;5056367;28;45663;-69
2022/06/20 09:27:15;;;;;;;;;20.00;17.25;;;;;18.44;88.81;100649.91;5072223;28;45376;-68
2022/06/20 09:30:03;;;;;;;;;22.75;22.50;;;;;18.52;90.94;100651.06;5056565;28;45390;-68
2022/06/20 09:33:12;;;;;;;;;25.50;25.50;;;;;18.50;85.95;100658.31;5056229;28;45342;-67
2022/06/20 09:36:12;;;;;;;;;25.00;23.75;;;;;18.52;91.77;100658.19;5071417;28;47719;-68
2022/06/20 09:38:59;;;;;;;;;23.75;21.00;;;;;18.75;92.97;100671.66;5056142;28;45470;-68
2022/06/20 09:41:49;;;;;;;;;30.75;27.50;;;;;18.95;94.62;100680.84;5056089;28;45280;-68
2022/06/20 09:44:33;;;;;;;;;20.50;18.25;;;;;19.13;90.05;100670.66;5056807;28;45364;-69
2022/06/20 09:46:58;;;;;;;;;27.50;23.75;;;;;19.21;91.06;100670.94;5056006;28;45460;-69
2022/06/20 09:49:52;;;;;;;;;23.50;22.50;;;;;19.21;87.04;100656.75;5055713;28;45347;-70
2022/06/20 09:52:54;;;;;;;;;23.75;22.25;;;;;19.49;92.01;100681.31;5055820;28;45275;-65
2022/06/20 09:55:25;;;;;;;;;23.75;21.75;;;;;19.69;91.71;100683.31;5055834;28;45224;-68
2022/06/20 09:57:57;;;;;;;;;29.75;28.50;;;;;19.67;86.77;100676.41;5055472;28;46660;-68
2022/06/20 10:00:53;;;;;;;;;25.75;22.75;;;;;19.76;87.84;100683.69;5071311;28;45455;-68
2022/06/20 10:03:33;;;;;;;;;22.75;20.75;;;;;19.92;91.60;100687.88;5055520;28;45397;-68
2022/06/20 10:06:10;;;;;;;;;28.75;24.00;;;;;19.90;85.06;100695.13;5055784;28;45400;-69
2022/06/20 10:08:51;;;;;;;;;31.50;27.00;;;;;19.93;89.31;100690.41;5055372;28;45651;-70
2022/06/20 10:11:23;;;;;;;;;27.75;26.00;;;;;20.04;88.67;100694.03;5055696;28;45285;-69
2022/06/20 10:14:23;;;;;;;;;23.75;19.50;;;;;20.04;85.49;100686.03;5055556;28;45310;-69
2022/06/20 10:17:13;;;;;;;;;22.00;20.25;;;;;20.00;83.93;100686.28;5055792;28;45340;-69
2022/06/20 10:20:03;;;;;;;;;23.75;21.75;;;;;20.04;87.33;100691.38;5055450;28;46256;-68
2022/06/20 10:22:41;;;;;;;;;28.00;23.25;;;;;20.14;88.03;100689.66;5055060;28;45334;-68
2022/06/20 10:25:31;;;;;;;;;25.50;23.75;;;;;20.24;88.43;100692.47;5055545;28;45330;-69
2022/06/20 10:28:13;;;;;;;;;26.50;24.75;;;;;20.33;82.64;100689.06;5055492;28;45335;-69
2022/06/20 10:30:55;;;;;;;;;24.75;23.75;;;;;20.50;89.39;100694.88;5055532;28;45532;-69
2022/06/20 10:33:30;;;;;;;;;22.25;22.00;;;;;20.69;85.46;100697.78;5053807;28;45319;-69
2022/06/20 10:36:16;;;;;;;;;28.75;28.75;;;;;20.86;83.30;100698.25;5055164;28;45230;-68
2022/06/20 10:38:43;;;;;;;;;32.50;30.25;;;;;20.83;85.27;100687.81;5055225;28;45377;-69
2022/06/20 10:41:45;;;;;;;;;35.25;31.00;;;;;21.16;87.15;100689.50;5054962;28;46370;-69
2022/06/20 10:44:19;;;;;;;;;35.75;31.50;;;;;21.43;86.43;100698.88;5070520;28;45401;-68
2022/06/20 10:46:59;;;;;;;;;34.00;29.00;;;;;21.70;84.88;100708.25;5055880;28;45236;-69
2022/06/20 10:49:39;;;;;;;;;34.25;31.00;;;;;21.93;84.58;100712.59;5055235;28;45502;-69
2022/06/20 10:52:26;;;;;;;;;35.50;32.00;;;;;22.23;85.55;100713.59;5055232;28;46528;-68
2022/06/20 10:54:55;;;;;;;;;26.25;24.00;;;;;22.41;84.16;100717.31;5055063;28;45306;-68
2022/06/20 10:57:26;;;;;;;;;29.25;27.50;;;;;22.53;84.88;100719.94;5055150;28;45423;-67
2022/06/20 11:00:12;;;;;;;;;27.00;25.25;;;;;22.69;83.88;100711.38;5055093;28;45596;-68
2022/06/20 11:02:55;;;;;;;;;31.25;29.00;;;;;22.70;80.35;100724.63;5070661;28;46172;-69
2022/06/20 11:05:34;;;;;;;;;34.00;29.50;;;;;22.73;80.32;100723.50;5055052;28;45297;-69
2022/06/20 11:08:29;;;;;;;;;38.25;31.75;;;;;22.77;81.83;100722.25;5054507;28;45444;-68
2022/06/20 11:10:55;;;;;;;;;33.75;32.00;;;;;22.81;81.17;100721.00;5054954;28;45321;-68
2022/06/20 11:13:36;;;;;;;;;31.00;29.00;;;;;22.87;82.29;100728.47;5055008;28;45337;-68
2022/06/20 11:16:08;;;;;;;;;31.75;25.50;;;;;22.94;79.50;100723.41;5069804;28;45385;-69
2022/06/20 11:19:05;;;;;;;;;24.25;22.50;;;;;23.03;78.93;100721.72;5055006;28;45334;-69
2022/06/20 11:22:10;;;;;;;;;32.00;29.50;;;;;23.25;76.66;100725.16;5053324;28;45377;-70
2022/06/20 11:24:57;;;;;;;;;32.00;29.00;;;;;23.27;76.69;100720.47;5052903;28;46246;-69
2022/06/20 11:27:53;;;;;;;;;21.00;21.00;;;;;23.35;74.32;100723.34;5054554;28;45215;-68
2022/06/20 11:30:24;;;;;;;;;29.25;25.50;;;;;23.51;75.04;100720.06;5054632;28;45338;-68
2022/06/20 11:36:13;;;;;;;;;30.25;28.75;;;;;23.92;75.84;100727.91;5054570;28;45517;-70
2022/06/20 11:38:45;;;;;;;;;29.75;27.00;;;;;24.02;77.29;100731.44;5054311;28;45315;-69
2022/06/20 11:41:28;;;;;;;;;20.50;19.00;;;;;24.19;77.22;100720.91;5054413;28;45429;-68
2022/06/20 11:44:12;;;;;;;;;19.00;18.25;;;;;24.47;76.15;100723.63;5053105;28;45417;-69
2022/06/20 11:46:52;;;;;;;;;23.50;23.00;;;;;24.84;75.03;100732.63;5054135;28;46592;-69
2022/06/20 11:49:55;;;;;;;;;22.75;21.25;;;;;25.09;74.32;100733.72;5053853;28;45433;-68
2022/06/20 11:52:38;;;;;;;;;24.25;23.75;;;;;25.20;72.63;100743.44;5054656;28;45438;-69
2022/06/20 11:55:24;;;;;;;;;22.00;18.75;;;;;25.23;72.46;100735.06;5054324;28;45872;-68